sensor_id;sensor_type;location;lat;lon;timestamp;P1;durP1;ratioP1;P2;durP2;ratioP2
54849;SDS011;47660;51.334;12.396;2023-04-30T00:02:24;5.35;;;3.45;;
54849;SDS011;47660;51.334;12.396;2023-04-30T00:04:49;9.85;;;3.50;;
54849;SDS011;47660;51.334;12.396;2023-04-30T00:07:15;7.25;;;4.05;;
54849;SDS011;47660;51.334;12.396;2023-04-30T00:09:40;5.95;;;3.60;;
54849;SDS011;47660;51.334;12.396;2023-04-30T00:12:06;5.68;;;3.53;;
54849;SDS011;47660;51.334;12.396;2023-04-30T00:14:31;9.20;;;4.22;;
54849;SDS011;47660;51.334;12.396;2023-04-30T00:16:56;6.32;;;3.45;;
54849;SDS011;47660;51.334;12.396;2023-04-30T00:19:22;5.63;;;3.50;;
54849;SDS011;47660;51.334;12.396;2023-04-30T00:21:47;6.45;;;3.03;;
54849;SDS011;47660;51.334;12.396;2023-04-30T00:24:13;6.80;;;3.95;;
54849;SDS011;47660;51.334;12.396;2023-04-30T00:26:38;5.57;;;3.45;;
54849;SDS011;47660;51.334;12.396;2023-04-30T00:29:03;9.43;;;3.85;;
54849;SDS011;47660;51.334;12.396;2023-04-30T00:31:29;3.50;;;2.60;;
54849;SDS011;47660;51.334;12.396;2023-04-30T00:33:54;6.38;;;2.30;;
54849;SDS011;47660;51.334;12.396;2023-04-30T00:36:20;4.22;;;2.50;;
54849;SDS011;47660;51.334;12.396;2023-04-30T00:38:46;6.53;;;2.35;;
54849;SDS011;47660;51.334;12.396;2023-04-30T00:41:12;3.00;;;2.22;;
54849;SDS011;47660;51.334;12.396;2023-04-30T00:43:39;2.53;;;1.83;;
54849;SDS011;47660;51.334;12.396;2023-04-30T00:46:05;2.85;;;2.03;;
54849;SDS011;47660;51.334;12.396;2023-04-30T00:48:30;3.17;;;1.90;;
54849;SDS011;47660;51.334;12.396;2023-04-30T00:50:56;4.07;;;1.83;;
54849;SDS011;47660;51.334;12.396;2023-04-30T00:53:21;2.75;;;1.88;;
54849;SDS011;47660;51.334;12.396;2023-04-30T00:55:47;2.78;;;1.48;;
54849;SDS011;47660;51.334;12.396;2023-04-30T00:58:17;2.42;;;1.67;;
54849;SDS011;47660;51.334;12.396;2023-04-30T01:00:42;4.35;;;2.00;;
54849;SDS011;47660;51.334;12.396;2023-04-30T01:03:11;3.00;;;2.00;;
54849;SDS011;47660;51.334;12.396;2023-04-30T01:05:40;4.93;;;1.42;;
54849;SDS011;47660;51.334;12.396;2023-04-30T01:08:06;6.38;;;1.50;;
54849;SDS011;47660;51.334;12.396;2023-04-30T01:10:44;3.78;;;1.23;;
54849;SDS011;47660;51.334;12.396;2023-04-30T01:14:11;2.75;;;1.48;;
54849;SDS011;47660;51.334;12.396;2023-04-30T01:16:29;4.20;;;1.55;;
54849;SDS011;47660;51.334;12.396;2023-04-30T01:19:01;0.82;;;0.82;;
54849;SDS011;47660;51.334;12.396;2023-04-30T01:21:33;3.30;;;1.40;;
54849;SDS011;47660;51.334;12.396;2023-04-30T01:24:12;2.90;;;1.42;;
54849;SDS011;47660;51.334;12.396;2023-04-30T01:29:53;3.17;;;1.70;;
54849;SDS011;47660;51.334;12.396;2023-04-30T01:32:19;1.75;;;1.30;;
54849;SDS011;47660;51.334;12.396;2023-04-30T01:34:45;4.45;;;2.08;;
54849;SDS011;47660;51.334;12.396;2023-04-30T01:37:14;3.75;;;2.08;;
54849;SDS011;47660;51.334;12.396;2023-04-30T01:46:08;3.83;;;1.98;;
54849;SDS011;47660;51.334;12.396;2023-04-30T01:51:47;4.00;;;1.90;;
54849;SDS011;47660;51.334;12.396;2023-04-30T01:55:04;2.28;;;1.52;;
54849;SDS011;47660;51.334;12.396;2023-04-30T01:57:15;3.50;;;1.50;;
54849;SDS011;47660;51.334;12.396;2023-04-30T01:59:45;4.90;;;1.70;;
54849;SDS011;47660;51.334;12.396;2023-04-30T02:02:11;2.92;;;1.95;;
54849;SDS011;47660;51.334;12.396;2023-04-30T02:04:39;3.83;;;1.90;;
54849;SDS011;47660;51.334;12.396;2023-04-30T02:07:05;4.18;;;1.65;;
54849;SDS011;47660;51.334;12.396;2023-04-30T02:09:30;6.47;;;1.73;;
54849;SDS011;47660;51.334;12.396;2023-04-30T02:11:56;6.05;;;2.00;;
54849;SDS011;47660;51.334;12.396;2023-04-30T02:14:21;1.90;;;1.08;;
54849;SDS011;47660;51.334;12.396;2023-04-30T02:16:47;2.33;;;1.23;;
54849;SDS011;47660;51.334;12.396;2023-04-30T02:19:12;3.80;;;1.70;;
54849;SDS011;47660;51.334;12.396;2023-04-30T02:21:38;3.15;;;1.17;;
54849;SDS011;47660;51.334;12.396;2023-04-30T02:24:03;3.50;;;1.70;;
54849;SDS011;47660;51.334;12.396;2023-04-30T02:26:29;2.78;;;1.77;;
54849;SDS011;47660;51.334;12.396;2023-04-30T02:28:57;4.53;;;1.70;;
54849;SDS011;47660;51.334;12.396;2023-04-30T02:31:22;3.42;;;1.67;;
54849;SDS011;47660;51.334;12.396;2023-04-30T02:33:48;3.15;;;1.90;;
54849;SDS011;47660;51.334;12.396;2023-04-30T02:36:13;3.80;;;1.77;;
54849;SDS011;47660;51.334;12.396;2023-04-30T02:38:38;2.15;;;1.73;;
54849;SDS011;47660;51.334;12.396;2023-04-30T02:41:04;2.25;;;1.50;;
54849;SDS011;47660;51.334;12.396;2023-04-30T02:43:29;3.17;;;1.60;;
54849;SDS011;47660;51.334;12.396;2023-04-30T02:45:57;3.00;;;1.65;;
54849;SDS011;47660;51.334;12.396;2023-04-30T02:48:22;2.17;;;1.33;;
54849;SDS011;47660;51.334;12.396;2023-04-30T02:50:50;4.50;;;1.55;;
54849;SDS011;47660;51.334;12.396;2023-04-30T02:53:16;3.58;;;1.77;;
54849;SDS011;47660;51.334;12.396;2023-04-30T02:55:43;2.67;;;1.63;;
54849;SDS011;47660;51.334;12.396;2023-04-30T02:58:09;10.13;;;1.98;;
54849;SDS011;47660;51.334;12.396;2023-04-30T03:00:37;2.63;;;1.75;;
54849;SDS011;47660;51.334;12.396;2023-04-30T03:03:05;6.82;;;1.55;;
54849;SDS011;47660;51.334;12.396;2023-04-30T03:05:33;3.35;;;1.70;;
54849;SDS011;47660;51.334;12.396;2023-04-30T03:07:58;2.67;;;1.50;;
54849;SDS011;47660;51.334;12.396;2023-04-30T03:10:28;2.40;;;1.75;;
54849;SDS011;47660;51.334;12.396;2023-04-30T03:12:54;2.75;;;1.80;;
54849;SDS011;47660;51.334;12.396;2023-04-30T03:15:19;3.80;;;1.58;;
54849;SDS011;47660;51.334;12.396;2023-04-30T03:17:45;3.90;;;1.67;;
54849;SDS011;47660;51.334;12.396;2023-04-30T03:20:10;2.70;;;1.30;;
54849;SDS011;47660;51.334;12.396;2023-04-30T03:22:36;7.60;;;2.00;;
54849;SDS011;47660;51.334;12.396;2023-04-30T03:25:02;6.15;;;1.73;;
54849;SDS011;47660;51.334;12.396;2023-04-30T03:27:27;1.98;;;1.65;;
54849;SDS011;47660;51.334;12.396;2023-04-30T03:29:53;3.83;;;1.88;;
54849;SDS011;47660;51.334;12.396;2023-04-30T03:32:18;4.32;;;1.92;;
54849;SDS011;47660;51.334;12.396;2023-04-30T03:34:43;6.00;;;2.08;;
54849;SDS011;47660;51.334;12.396;2023-04-30T03:37:12;2.35;;;1.77;;
54849;SDS011;47660;51.334;12.396;2023-04-30T03:39:37;4.53;;;1.67;;
54849;SDS011;47660;51.334;12.396;2023-04-30T03:42:05;5.78;;;2.00;;
54849;SDS011;47660;51.334;12.396;2023-04-30T03:44:30;5.00;;;2.10;;
54849;SDS011;47660;51.334;12.396;2023-04-30T03:46:56;3.75;;;2.60;;
54849;SDS011;47660;51.334;12.396;2023-04-30T03:49:21;3.28;;;2.15;;
54849;SDS011;47660;51.334;12.396;2023-04-30T03:51:47;7.18;;;1.88;;
54849;SDS011;47660;51.334;12.396;2023-04-30T03:54:12;5.07;;;2.00;;
54849;SDS011;47660;51.334;12.396;2023-04-30T03:56:37;5.85;;;2.45;;
54849;SDS011;47660;51.334;12.396;2023-04-30T03:59:04;5.82;;;2.08;;
54849;SDS011;47660;51.334;12.396;2023-04-30T04:01:30;7.63;;;2.58;;
54849;SDS011;47660;51.334;12.396;2023-04-30T04:03:57;6.15;;;2.28;;
54849;SDS011;47660;51.334;12.396;2023-04-30T04:06:23;5.72;;;2.05;;
54849;SDS011;47660;51.334;12.396;2023-04-30T04:08:48;3.20;;;1.92;;
54849;SDS011;47660;51.334;12.396;2023-04-30T04:11:14;3.70;;;1.95;;
54849;SDS011;47660;51.334;12.396;2023-04-30T04:13:41;3.30;;;1.85;;
54849;SDS011;47660;51.334;12.396;2023-04-30T04:16:07;3.33;;;1.95;;
54849;SDS011;47660;51.334;12.396;2023-04-30T04:18:33;4.32;;;1.98;;
54849;SDS011;47660;51.334;12.396;2023-04-30T04:21:01;6.63;;;2.05;;
54849;SDS011;47660;51.334;12.396;2023-04-30T04:23:28;12.57;;;2.45;;
54849;SDS011;47660;51.334;12.396;2023-04-30T04:25:53;6.82;;;2.42;;
54849;SDS011;47660;51.334;12.396;2023-04-30T04:28:21;6.28;;;2.20;;
54849;SDS011;47660;51.334;12.396;2023-04-30T04:30:47;6.00;;;1.83;;
54849;SDS011;47660;51.334;12.396;2023-04-30T04:33:13;8.43;;;2.10;;
54849;SDS011;47660;51.334;12.396;2023-04-30T04:35:38;2.35;;;1.73;;
54849;SDS011;47660;51.334;12.396;2023-04-30T04:38:04;3.33;;;1.88;;
54849;SDS011;47660;51.334;12.396;2023-04-30T04:40:33;5.18;;;2.00;;
54849;SDS011;47660;51.334;12.396;2023-04-30T04:42:59;3.70;;;1.85;;
54849;SDS011;47660;51.334;12.396;2023-04-30T04:45:25;4.65;;;1.50;;
54849;SDS011;47660;51.334;12.396;2023-04-30T04:47:52;3.03;;;1.75;;
54849;SDS011;47660;51.334;12.396;2023-04-30T04:50:18;2.00;;;1.52;;
54849;SDS011;47660;51.334;12.396;2023-04-30T04:52:46;2.10;;;1.63;;
54849;SDS011;47660;51.334;12.396;2023-04-30T04:55:12;7.68;;;1.98;;
54849;SDS011;47660;51.334;12.396;2023-04-30T04:57:38;2.53;;;1.52;;
54849;SDS011;47660;51.334;12.396;2023-04-30T05:00:03;4.47;;;2.15;;
54849;SDS011;47660;51.334;12.396;2023-04-30T05:02:32;3.03;;;1.90;;
54849;SDS011;47660;51.334;12.396;2023-04-30T05:04:57;6.03;;;2.20;;
54849;SDS011;47660;51.334;12.396;2023-04-30T05:07:23;3.60;;;1.75;;
54849;SDS011;47660;51.334;12.396;2023-04-30T05:09:48;2.72;;;1.45;;
54849;SDS011;47660;51.334;12.396;2023-04-30T05:12:14;5.50;;;2.08;;
54849;SDS011;47660;51.334;12.396;2023-04-30T05:14:39;6.95;;;1.98;;
54849;SDS011;47660;51.334;12.396;2023-04-30T05:17:10;2.17;;;1.70;;
54849;SDS011;47660;51.334;12.396;2023-04-30T05:19:35;6.88;;;2.42;;
54849;SDS011;47660;51.334;12.396;2023-04-30T05:22:00;2.53;;;1.52;;
54849;SDS011;47660;51.334;12.396;2023-04-30T05:24:26;8.90;;;2.08;;
54849;SDS011;47660;51.334;12.396;2023-04-30T05:26:53;7.30;;;1.80;;
54849;SDS011;47660;51.334;12.396;2023-04-30T05:29:18;3.75;;;1.85;;
54849;SDS011;47660;51.334;12.396;2023-04-30T05:31:44;2.38;;;1.60;;
54849;SDS011;47660;51.334;12.396;2023-04-30T05:34:09;2.20;;;1.80;;
54849;SDS011;47660;51.334;12.396;2023-04-30T05:36:34;3.83;;;1.70;;
54849;SDS011;47660;51.334;12.396;2023-04-30T05:39:00;8.50;;;2.20;;
54849;SDS011;47660;51.334;12.396;2023-04-30T05:41:28;3.40;;;1.85;;
54849;SDS011;47660;51.334;12.396;2023-04-30T05:43:53;2.22;;;1.55;;
54849;SDS011;47660;51.334;12.396;2023-04-30T05:46:21;5.60;;;2.08;;
54849;SDS011;47660;51.334;12.396;2023-04-30T05:48:49;2.85;;;1.70;;
54849;SDS011;47660;51.334;12.396;2023-04-30T05:51:17;4.15;;;1.70;;
54849;SDS011;47660;51.334;12.396;2023-04-30T05:53:42;6.72;;;1.80;;
54849;SDS011;47660;51.334;12.396;2023-04-30T05:56:08;6.85;;;2.13;;
54849;SDS011;47660;51.334;12.396;2023-04-30T05:58:33;4.90;;;2.10;;
54849;SDS011;47660;51.334;12.396;2023-04-30T06:00:59;3.92;;;1.95;;
54849;SDS011;47660;51.334;12.396;2023-04-30T06:03:24;5.00;;;1.77;;
54849;SDS011;47660;51.334;12.396;2023-04-30T06:05:49;4.72;;;1.95;;
54849;SDS011;47660;51.334;12.396;2023-04-30T06:08:17;4.25;;;1.67;;
54849;SDS011;47660;51.334;12.396;2023-04-30T06:10:43;3.15;;;1.83;;
54849;SDS011;47660;51.334;12.396;2023-04-30T06:13:08;6.25;;;1.85;;
54849;SDS011;47660;51.334;12.396;2023-04-30T06:15:34;3.25;;;1.65;;
54849;SDS011;47660;51.334;12.396;2023-04-30T06:18:02;2.95;;;1.58;;
54849;SDS011;47660;51.334;12.396;2023-04-30T06:20:27;2.80;;;1.80;;
54849;SDS011;47660;51.334;12.396;2023-04-30T06:22:53;3.97;;;1.88;;
54849;SDS011;47660;51.334;12.396;2023-04-30T06:25:18;5.15;;;2.00;;
54849;SDS011;47660;51.334;12.396;2023-04-30T06:27:46;5.32;;;2.08;;
54849;SDS011;47660;51.334;12.396;2023-04-30T06:30:12;4.50;;;1.70;;
54849;SDS011;47660;51.334;12.396;2023-04-30T06:32:37;3.17;;;1.77;;
54849;SDS011;47660;51.334;12.396;2023-04-30T06:35:03;6.18;;;2.22;;
54849;SDS011;47660;51.334;12.396;2023-04-30T06:37:29;7.63;;;2.45;;
54849;SDS011;47660;51.334;12.396;2023-04-30T06:39:59;2.72;;;1.90;;
54849;SDS011;47660;51.334;12.396;2023-04-30T06:42:25;5.88;;;2.13;;
54849;SDS011;47660;51.334;12.396;2023-04-30T06:44:50;8.95;;;2.10;;
54849;SDS011;47660;51.334;12.396;2023-04-30T06:47:16;4.43;;;1.80;;
54849;SDS011;47660;51.334;12.396;2023-04-30T06:49:41;7.22;;;2.15;;
54849;SDS011;47660;51.334;12.396;2023-04-30T06:52:07;5.80;;;2.15;;
54849;SDS011;47660;51.334;12.396;2023-04-30T06:54:34;4.80;;;2.25;;
54849;SDS011;47660;51.334;12.396;2023-04-30T06:57:00;2.45;;;1.90;;
54849;SDS011;47660;51.334;12.396;2023-04-30T06:59:28;6.53;;;2.30;;
54849;SDS011;47660;51.334;12.396;2023-04-30T07:01:59;4.03;;;1.95;;
54849;SDS011;47660;51.334;12.396;2023-04-30T07:04:24;4.30;;;1.98;;
54849;SDS011;47660;51.334;12.396;2023-04-30T07:06:59;2.95;;;1.73;;
54849;SDS011;47660;51.334;12.396;2023-04-30T07:09:26;3.90;;;1.65;;
54849;SDS011;47660;51.334;12.396;2023-04-30T07:11:57;2.25;;;1.70;;
54849;SDS011;47660;51.334;12.396;2023-04-30T07:14:22;3.80;;;2.00;;
54849;SDS011;47660;51.334;12.396;2023-04-30T07:16:48;2.85;;;1.80;;
54849;SDS011;47660;51.334;12.396;2023-04-30T07:19:14;4.65;;;1.85;;
54849;SDS011;47660;51.334;12.396;2023-04-30T07:21:40;3.60;;;2.00;;
54849;SDS011;47660;51.334;12.396;2023-04-30T07:24:05;4.63;;;1.73;;
54849;SDS011;47660;51.334;12.396;2023-04-30T07:26:31;4.85;;;1.77;;
54849;SDS011;47660;51.334;12.396;2023-04-30T07:29:02;5.75;;;2.00;;
54849;SDS011;47660;51.334;12.396;2023-04-30T07:31:28;6.20;;;2.25;;
54849;SDS011;47660;51.334;12.396;2023-04-30T07:33:54;6.63;;;2.00;;
54849;SDS011;47660;51.334;12.396;2023-04-30T07:36:20;5.45;;;2.05;;
54849;SDS011;47660;51.334;12.396;2023-04-30T07:38:46;5.43;;;2.20;;
54849;SDS011;47660;51.334;12.396;2023-04-30T07:41:11;6.15;;;1.90;;
54849;SDS011;47660;51.334;12.396;2023-04-30T07:43:37;7.65;;;1.85;;
54849;SDS011;47660;51.334;12.396;2023-04-30T07:46:05;4.35;;;2.20;;
54849;SDS011;47660;51.334;12.396;2023-04-30T07:48:30;5.18;;;2.65;;
54849;SDS011;47660;51.334;12.396;2023-04-30T07:50:55;6.45;;;2.13;;
54849;SDS011;47660;51.334;12.396;2023-04-30T07:53:24;6.22;;;2.28;;
54849;SDS011;47660;51.334;12.396;2023-04-30T07:55:50;4.65;;;1.55;;
54849;SDS011;47660;51.334;12.396;2023-04-30T07:58:15;2.28;;;1.77;;
54849;SDS011;47660;51.334;12.396;2023-04-30T08:00:41;3.08;;;2.40;;
54849;SDS011;47660;51.334;12.396;2023-04-30T08:03:06;4.38;;;2.15;;
54849;SDS011;47660;51.334;12.396;2023-04-30T08:05:32;7.40;;;2.10;;
54849;SDS011;47660;51.334;12.396;2023-04-30T08:07:58;5.00;;;2.70;;
54849;SDS011;47660;51.334;12.396;2023-04-30T08:10:25;8.82;;;2.50;;
54849;SDS011;47660;51.334;12.396;2023-04-30T08:12:50;3.28;;;2.55;;
54849;SDS011;47660;51.334;12.396;2023-04-30T08:15:17;3.55;;;1.90;;
54849;SDS011;47660;51.334;12.396;2023-04-30T08:17:45;6.10;;;2.05;;
54849;SDS011;47660;51.334;12.396;2023-04-30T08:20:15;4.95;;;2.25;;
54849;SDS011;47660;51.334;12.396;2023-04-30T08:22:41;3.33;;;2.03;;
54849;SDS011;47660;51.334;12.396;2023-04-30T08:25:08;5.93;;;2.00;;
54849;SDS011;47660;51.334;12.396;2023-04-30T08:27:39;7.28;;;1.92;;
54849;SDS011;47660;51.334;12.396;2023-04-30T08:30:05;5.68;;;1.77;;
54849;SDS011;47660;51.334;12.396;2023-04-30T08:32:34;3.20;;;1.90;;
54849;SDS011;47660;51.334;12.396;2023-04-30T08:35:00;3.55;;;1.95;;
54849;SDS011;47660;51.334;12.396;2023-04-30T08:37:27;3.67;;;1.83;;
54849;SDS011;47660;51.334;12.396;2023-04-30T08:39:55;5.22;;;1.95;;
54849;SDS011;47660;51.334;12.396;2023-04-30T08:42:24;4.07;;;1.77;;
54849;SDS011;47660;51.334;12.396;2023-04-30T08:44:59;3.47;;;1.73;;
54849;SDS011;47660;51.334;12.396;2023-04-30T08:47:27;2.42;;;1.15;;
54849;SDS011;47660;51.334;12.396;2023-04-30T08:49:56;5.43;;;2.08;;
54849;SDS011;47660;51.334;12.396;2023-04-30T08:52:25;2.85;;;1.30;;
54849;SDS011;47660;51.334;12.396;2023-04-30T08:54:53;2.45;;;1.58;;
54849;SDS011;47660;51.334;12.396;2023-04-30T08:57:21;3.30;;;1.60;;
54849;SDS011;47660;51.334;12.396;2023-04-30T08:59:46;2.88;;;1.38;;
54849;SDS011;47660;51.334;12.396;2023-04-30T09:02:12;3.67;;;1.10;;
54849;SDS011;47660;51.334;12.396;2023-04-30T09:04:38;6.05;;;1.65;;
54849;SDS011;47660;51.334;12.396;2023-04-30T09:07:03;2.88;;;1.30;;
54849;SDS011;47660;51.334;12.396;2023-04-30T09:09:35;2.55;;;1.20;;
54849;SDS011;47660;51.334;12.396;2023-04-30T09:12:11;1.13;;;1.00;;
54849;SDS011;47660;51.334;12.396;2023-04-30T09:15:03;2.40;;;1.17;;
54849;SDS011;47660;51.334;12.396;2023-04-30T09:17:33;2.65;;;1.55;;
54849;SDS011;47660;51.334;12.396;2023-04-30T09:22:34;4.97;;;1.42;;
54849;SDS011;47660;51.334;12.396;2023-04-30T09:25:03;3.25;;;1.30;;
54849;SDS011;47660;51.334;12.396;2023-04-30T09:27:30;3.85;;;1.40;;
54849;SDS011;47660;51.334;12.396;2023-04-30T09:29:58;4.03;;;1.20;;
54849;SDS011;47660;51.334;12.396;2023-04-30T09:32:26;1.65;;;1.30;;
54849;SDS011;47660;51.334;12.396;2023-04-30T09:34:53;3.53;;;1.95;;
54849;SDS011;47660;51.334;12.396;2023-04-30T09:37:19;2.50;;;1.05;;
54849;SDS011;47660;51.334;12.396;2023-04-30T09:39:45;4.05;;;1.45;;
54849;SDS011;47660;51.334;12.396;2023-04-30T09:42:12;3.33;;;1.10;;
54849;SDS011;47660;51.334;12.396;2023-04-30T09:44:39;3.08;;;0.93;;
54849;SDS011;47660;51.334;12.396;2023-04-30T09:49:39;3.45;;;1.25;;
54849;SDS011;47660;51.334;12.396;2023-04-30T09:52:09;4.30;;;1.05;;
54849;SDS011;47660;51.334;12.396;2023-04-30T09:54:35;3.63;;;1.50;;
54849;SDS011;47660;51.334;12.396;2023-04-30T09:57:02;3.95;;;1.20;;
54849;SDS011;47660;51.334;12.396;2023-04-30T09:59:28;2.35;;;1.40;;
54849;SDS011;47660;51.334;12.396;2023-04-30T10:01:57;2.35;;;1.20;;
54849;SDS011;47660;51.334;12.396;2023-04-30T10:04:24;3.45;;;1.10;;
54849;SDS011;47660;51.334;12.396;2023-04-30T10:06:52;2.38;;;1.10;;
54849;SDS011;47660;51.334;12.396;2023-04-30T10:09:22;2.45;;;1.00;;
54849;SDS011;47660;51.334;12.396;2023-04-30T10:11:50;1.80;;;0.95;;
54849;SDS011;47660;51.334;12.396;2023-04-30T10:14:16;1.83;;;1.02;;
54849;SDS011;47660;51.334;12.396;2023-04-30T10:17:07;1.65;;;1.10;;
54849;SDS011;47660;51.334;12.396;2023-04-30T10:19:38;2.95;;;0.95;;
54849;SDS011;47660;51.334;12.396;2023-04-30T10:22:06;3.55;;;1.40;;
54849;SDS011;47660;51.334;12.396;2023-04-30T10:24:37;6.80;;;1.05;;
54849;SDS011;47660;51.334;12.396;2023-04-30T10:27:03;5.15;;;1.30;;
54849;SDS011;47660;51.334;12.396;2023-04-30T10:29:30;5.03;;;1.48;;
54849;SDS011;47660;51.334;12.396;2023-04-30T10:31:55;6.25;;;1.60;;
54849;SDS011;47660;51.334;12.396;2023-04-30T10:40:01;4.07;;;1.42;;
54849;SDS011;47660;51.334;12.396;2023-04-30T10:42:29;1.15;;;1.00;;
54849;SDS011;47660;51.334;12.396;2023-04-30T10:45:01;2.10;;;1.30;;
54849;SDS011;47660;51.334;12.396;2023-04-30T10:47:28;2.65;;;1.00;;
54849;SDS011;47660;51.334;12.396;2023-04-30T10:50:04;1.80;;;1.13;;
54849;SDS011;47660;51.334;12.396;2023-04-30T10:52:37;1.95;;;1.33;;
54849;SDS011;47660;51.334;12.396;2023-04-30T10:55:09;2.90;;;1.00;;
54849;SDS011;47660;51.334;12.396;2023-04-30T10:57:40;1.60;;;1.00;;
54849;SDS011;47660;51.334;12.396;2023-04-30T11:02:42;2.47;;;1.60;;
54849;SDS011;47660;51.334;12.396;2023-04-30T11:05:12;1.25;;;0.93;;
54849;SDS011;47660;51.334;12.396;2023-04-30T11:10:19;5.35;;;1.00;;
54849;SDS011;47660;51.334;12.396;2023-04-30T11:12:49;3.92;;;1.63;;
54849;SDS011;47660;51.334;12.396;2023-04-30T11:15:25;4.55;;;1.55;;
54849;SDS011;47660;51.334;12.396;2023-04-30T11:17:57;5.82;;;1.63;;
54849;SDS011;47660;51.334;12.396;2023-04-30T11:20:24;3.03;;;1.27;;
54849;SDS011;47660;51.334;12.396;2023-04-30T11:25:39;5.38;;;1.75;;
54849;SDS011;47660;51.334;12.396;2023-04-30T11:28:18;3.45;;;1.48;;
54849;SDS011;47660;51.334;12.396;2023-04-30T11:30:55;5.38;;;1.70;;
54849;SDS011;47660;51.334;12.396;2023-04-30T11:33:25;2.33;;;1.40;;
54849;SDS011;47660;51.334;12.396;2023-04-30T11:35:55;1.65;;;1.30;;
54849;SDS011;47660;51.334;12.396;2023-04-30T11:38:33;3.67;;;1.30;;
54849;SDS011;47660;51.334;12.396;2023-04-30T11:41:02;2.55;;;1.38;;
54849;SDS011;47660;51.334;12.396;2023-04-30T11:43:31;2.55;;;1.33;;
54849;SDS011;47660;51.334;12.396;2023-04-30T11:46:03;3.92;;;1.50;;
54849;SDS011;47660;51.334;12.396;2023-04-30T11:48:37;2.80;;;1.13;;
54849;SDS011;47660;51.334;12.396;2023-04-30T11:51:19;5.32;;;1.33;;
54849;SDS011;47660;51.334;12.396;2023-04-30T11:53:52;2.13;;;1.17;;
54849;SDS011;47660;51.334;12.396;2023-04-30T11:56:23;2.72;;;1.23;;
54849;SDS011;47660;51.334;12.396;2023-04-30T11:58:52;3.50;;;1.48;;
54849;SDS011;47660;51.334;12.396;2023-04-30T12:01:38;2.05;;;1.45;;
54849;SDS011;47660;51.334;12.396;2023-04-30T12:04:04;2.28;;;1.20;;
54849;SDS011;47660;51.334;12.396;2023-04-30T12:06:30;3.08;;;1.40;;
54849;SDS011;47660;51.334;12.396;2023-04-30T12:08:57;5.03;;;1.10;;
54849;SDS011;47660;51.334;12.396;2023-04-30T12:11:32;2.30;;;1.35;;
54849;SDS011;47660;51.334;12.396;2023-04-30T12:14:08;1.50;;;1.13;;
54849;SDS011;47660;51.334;12.396;2023-04-30T12:16:39;4.35;;;1.38;;
54849;SDS011;47660;51.334;12.396;2023-04-30T12:19:10;2.58;;;1.25;;
54849;SDS011;47660;51.334;12.396;2023-04-30T12:21:40;3.17;;;1.35;;
54849;SDS011;47660;51.334;12.396;2023-04-30T12:24:26;2.22;;;1.20;;
54849;SDS011;47660;51.334;12.396;2023-04-30T12:26:54;2.63;;;1.17;;
54849;SDS011;47660;51.334;12.396;2023-04-30T12:29:20;1.52;;;1.00;;
54849;SDS011;47660;51.334;12.396;2023-04-30T12:31:56;2.38;;;1.10;;
54849;SDS011;47660;51.334;12.396;2023-04-30T12:34:25;1.52;;;1.10;;
54849;SDS011;47660;51.334;12.396;2023-04-30T12:36:56;2.55;;;1.20;;
54849;SDS011;47660;51.334;12.396;2023-04-30T12:39:25;2.40;;;0.90;;
54849;SDS011;47660;51.334;12.396;2023-04-30T12:42:01;2.55;;;1.25;;
54849;SDS011;47660;51.334;12.396;2023-04-30T12:44:31;2.78;;;1.10;;
54849;SDS011;47660;51.334;12.396;2023-04-30T12:47:10;1.58;;;1.13;;
54849;SDS011;47660;51.334;12.396;2023-04-30T12:49:36;1.80;;;1.00;;
54849;SDS011;47660;51.334;12.396;2023-04-30T12:52:05;2.80;;;1.52;;
54849;SDS011;47660;51.334;12.396;2023-04-30T12:54:33;2.10;;;1.30;;
54849;SDS011;47660;51.334;12.396;2023-04-30T12:59:38;2.03;;;1.02;;
54849;SDS011;47660;51.334;12.396;2023-04-30T13:02:16;4.88;;;1.23;;
54849;SDS011;47660;51.334;12.396;2023-04-30T13:04:48;1.92;;;1.20;;
54849;SDS011;47660;51.334;12.396;2023-04-30T13:07:17;3.17;;;1.60;;
54849;SDS011;47660;51.334;12.396;2023-04-30T13:09:48;6.43;;;1.58;;
54849;SDS011;47660;51.334;12.396;2023-04-30T13:12:13;6.35;;;1.13;;
54849;SDS011;47660;51.334;12.396;2023-04-30T13:14:50;4.88;;;1.45;;
54849;SDS011;47660;51.334;12.396;2023-04-30T13:17:15;2.33;;;1.30;;
54849;SDS011;47660;51.334;12.396;2023-04-30T13:19:41;3.58;;;1.33;;
54849;SDS011;47660;51.334;12.396;2023-04-30T13:22:09;4.70;;;1.27;;
54849;SDS011;47660;51.334;12.396;2023-04-30T13:24:35;4.00;;;1.50;;
54849;SDS011;47660;51.334;12.396;2023-04-30T13:27:05;2.92;;;1.40;;
54849;SDS011;47660;51.334;12.396;2023-04-30T13:29:31;3.10;;;1.48;;
54849;SDS011;47660;51.334;12.396;2023-04-30T13:31:56;3.60;;;1.30;;
54849;SDS011;47660;51.334;12.396;2023-04-30T13:34:22;4.18;;;1.67;;
54849;SDS011;47660;51.334;12.396;2023-04-30T13:36:47;3.90;;;1.40;;
54849;SDS011;47660;51.334;12.396;2023-04-30T13:39:18;4.38;;;1.58;;
54849;SDS011;47660;51.334;12.396;2023-04-30T13:41:44;5.38;;;1.80;;
54849;SDS011;47660;51.334;12.396;2023-04-30T13:44:11;2.97;;;1.42;;
54849;SDS011;47660;51.334;12.396;2023-04-30T13:46:36;2.05;;;1.48;;
54849;SDS011;47660;51.334;12.396;2023-04-30T13:49:02;4.28;;;1.60;;
54849;SDS011;47660;51.334;12.396;2023-04-30T13:51:27;2.90;;;1.55;;
54849;SDS011;47660;51.334;12.396;2023-04-30T13:53:56;2.70;;;1.33;;
54849;SDS011;47660;51.334;12.396;2023-04-30T13:56:23;3.60;;;1.80;;
54849;SDS011;47660;51.334;12.396;2023-04-30T13:58:49;4.30;;;1.52;;
54849;SDS011;47660;51.334;12.396;2023-04-30T14:01:18;2.55;;;1.60;;
54849;SDS011;47660;51.334;12.396;2023-04-30T14:03:43;5.15;;;2.13;;
54849;SDS011;47660;51.334;12.396;2023-04-30T14:06:11;3.95;;;1.63;;
54849;SDS011;47660;51.334;12.396;2023-04-30T14:08:37;3.70;;;1.45;;
54849;SDS011;47660;51.334;12.396;2023-04-30T14:11:05;3.95;;;1.40;;
54849;SDS011;47660;51.334;12.396;2023-04-30T14:13:31;4.20;;;1.58;;
54849;SDS011;47660;51.334;12.396;2023-04-30T14:15:57;2.20;;;1.45;;
54849;SDS011;47660;51.334;12.396;2023-04-30T14:18:33;2.42;;;1.40;;
54849;SDS011;47660;51.334;12.396;2023-04-30T14:20:58;1.73;;;1.50;;
54849;SDS011;47660;51.334;12.396;2023-04-30T14:23:27;4.93;;;2.67;;
54849;SDS011;47660;51.334;12.396;2023-04-30T14:25:55;3.08;;;1.83;;
54849;SDS011;47660;51.334;12.396;2023-04-30T14:28:22;2.03;;;1.50;;
54849;SDS011;47660;51.334;12.396;2023-04-30T14:30:48;1.80;;;1.40;;
54849;SDS011;47660;51.334;12.396;2023-04-30T14:33:15;3.83;;;1.15;;
54849;SDS011;47660;51.334;12.396;2023-04-30T14:35:41;1.65;;;1.45;;
54849;SDS011;47660;51.334;12.396;2023-04-30T14:38:06;3.00;;;1.40;;
54849;SDS011;47660;51.334;12.396;2023-04-30T14:40:34;1.88;;;1.30;;
54849;SDS011;47660;51.334;12.396;2023-04-30T14:42:59;3.78;;;1.63;;
54849;SDS011;47660;51.334;12.396;2023-04-30T14:45:25;2.15;;;1.55;;
54849;SDS011;47660;51.334;12.396;2023-04-30T14:47:52;4.75;;;1.95;;
54849;SDS011;47660;51.334;12.396;2023-04-30T14:50:20;3.13;;;1.20;;
54849;SDS011;47660;51.334;12.396;2023-04-30T14:52:46;1.55;;;1.20;;
54849;SDS011;47660;51.334;12.396;2023-04-30T14:55:11;2.22;;;1.20;;
54849;SDS011;47660;51.334;12.396;2023-04-30T14:57:37;3.67;;;1.27;;
54849;SDS011;47660;51.334;12.396;2023-04-30T15:00:05;1.92;;;1.15;;
54849;SDS011;47660;51.334;12.396;2023-04-30T15:02:30;1.35;;;0.95;;
54849;SDS011;47660;51.334;12.396;2023-04-30T15:04:59;1.60;;;1.05;;
54849;SDS011;47660;51.334;12.396;2023-04-30T15:07:24;2.78;;;1.33;;
54849;SDS011;47660;51.334;12.396;2023-04-30T15:09:54;2.08;;;1.02;;
54849;SDS011;47660;51.334;12.396;2023-04-30T15:12:19;3.95;;;1.10;;